UPS2291 KLAX-KOAK
Flight info
| Callsign | UPS2291 |
|---|---|
| Flight time | 0h 54m |
| Altitude | 38000 |
| Route | SUMMR2 RIZIN FLW EMZOH EMZOH4 |
| Aircraft | B748/H-SDE3FGHIM1M2RWXY/LB1 |
Departure
| Time | 2026-05-05 17:17 |
|---|---|
| Airport | Los Angeles International Airport (KLAX) |
Arrival
| Time | 2026-05-05 18:12 |
|---|---|
| Airport | San Francisco Bay Oakland International Airport (KOAK) |
| Time | Latitude | Longitude | Altitude | Speed | Heading |
|---|---|---|---|---|---|
| 2026-05-05 16:50 | 33.93327 | -118.40216 | 132 ft | 0 kts | 173° |
| 2026-05-05 17:06 | 33.93339 | -118.40218 | 129 ft | 2 kts | 175° |
| 2026-05-05 17:06 | 33.93356 | -118.40220 | 132 ft | 2 kts | 173° |
| 2026-05-05 17:06 | 33.93372 | -118.40223 | 127 ft | 2 kts | 174° |
| 2026-05-05 17:07 | 33.93389 | -118.40224 | 128 ft | 2 kts | 143° |
| 2026-05-05 17:07 | 33.93401 | -118.40238 | 132 ft | 2 kts | 117° |
| 2026-05-05 17:07 | 33.93408 | -118.40256 | 126 ft | 2 kts | 101° |
| 2026-05-05 17:07 | 33.93409 | -118.40276 | 126 ft | 2 kts | 81° |
| 2026-05-05 17:08 | 33.93407 | -118.40296 | 132 ft | 2 kts | 82° |
| 2026-05-05 17:08 | 33.93406 | -118.40303 | 124 ft | 0 kts | 82° |
| 2026-05-05 17:12 | 33.93407 | -118.40302 | 124 ft | 1 kts | 82° |
| 2026-05-05 17:13 | 33.93411 | -118.40261 | 127 ft | 9 kts | 83° |
| 2026-05-05 17:13 | 33.93422 | -118.40152 | 124 ft | 16 kts | 83° |
| 2026-05-05 17:13 | 33.93437 | -118.40010 | 124 ft | 18 kts | 83° |
| 2026-05-05 17:13 | 33.93453 | -118.39853 | 132 ft | 19 kts | 83° |
| 2026-05-05 17:14 | 33.93470 | -118.39686 | 132 ft | 21 kts | 83° |
| 2026-05-05 17:14 | 33.93489 | -118.39509 | 132 ft | 22 kts | 83° |
| 2026-05-05 17:14 | 33.93508 | -118.39322 | 124 ft | 23 kts | 83° |
| 2026-05-05 17:14 | 33.93528 | -118.39126 | 132 ft | 24 kts | 83° |
| 2026-05-05 17:15 | 33.93549 | -118.38922 | 129 ft | 25 kts | 83° |
| 2026-05-05 17:15 | 33.93570 | -118.38711 | 132 ft | 26 kts | 83° |
| 2026-05-05 17:15 | 33.93588 | -118.38530 | 132 ft | 21 kts | 83° |
| 2026-05-05 17:15 | 33.93601 | -118.38394 | 132 ft | 15 kts | 83° |
| 2026-05-05 17:16 | 33.93620 | -118.38308 | 126 ft | 7 kts | 45° |
| 2026-05-05 17:16 | 33.93677 | -118.38291 | 123 ft | 10 kts | 5° |
| 2026-05-05 17:16 | 33.93720 | -118.38304 | 129 ft | 5 kts | 320° |
| 2026-05-05 17:16 | 33.93731 | -118.38345 | 123 ft | 8 kts | 277° |
| 2026-05-05 17:17 | 33.93721 | -118.38449 | 128 ft | 28 kts | 262° |
| 2026-05-05 17:17 | 33.93658 | -118.39042 | 132 ft | 113 kts | 263° |
| 2026-05-05 17:17 | 33.93533 | -118.40263 | 242 ft | 173 kts | 263° |
| 2026-05-05 17:17 | 33.93375 | -118.41800 | 850 ft | 198 kts | 263° |
| 2026-05-05 17:18 | 33.93220 | -118.43558 | 1431 ft | 223 kts | 263° |
| 2026-05-05 17:18 | 33.93012 | -118.45494 | 1985 ft | 241 kts | 264° |
| 2026-05-05 17:18 | 33.92968 | -118.47540 | 2881 ft | 246 kts | 267° |
| 2026-05-05 17:18 | 33.92864 | -118.49619 | 3987 ft | 251 kts | 266° |
| 2026-05-05 17:19 | 33.92670 | -118.51737 | 4779 ft | 257 kts | 264° |
| 2026-05-05 17:19 | 33.92503 | -118.53892 | 4998 ft | 260 kts | 265° |
| 2026-05-05 17:19 | 33.92343 | -118.56045 | 4978 ft | 259 kts | 265° |
| 2026-05-05 17:19 | 33.92164 | -118.58213 | 5165 ft | 263 kts | 265° |
| 2026-05-05 17:20 | 33.91977 | -118.60397 | 6207 ft | 261 kts | 265° |
| 2026-05-05 17:20 | 33.91798 | -118.62576 | 7248 ft | 263 kts | 266° |
| 2026-05-05 17:20 | 33.91792 | -118.64795 | 8202 ft | 267 kts | 270° |
| 2026-05-05 17:20 | 33.91774 | -118.67044 | 9067 ft | 274 kts | 269° |
| 2026-05-05 17:21 | 33.91752 | -118.69324 | 9697 ft | 274 kts | 269° |
| 2026-05-05 17:21 | 33.91743 | -118.71631 | 10144 ft | 274 kts | 270° |
| 2026-05-05 17:21 | 33.91738 | -118.73946 | 10538 ft | 277 kts | 269° |
| 2026-05-05 17:22 | 33.91716 | -118.78850 | 11367 ft | 311 kts | 269° |
| 2026-05-05 17:22 | 33.91704 | -118.81534 | 11808 ft | 329 kts | 269° |
| 2026-05-05 17:22 | 33.91745 | -118.84312 | 12072 ft | 333 kts | 273° |
| 2026-05-05 17:22 | 33.91844 | -118.87114 | 12804 ft | 337 kts | 270° |
| 2026-05-05 17:23 | 33.91892 | -118.89949 | 13802 ft | 340 kts | 270° |
| 2026-05-05 17:23 | 33.91968 | -118.92805 | 14681 ft | 343 kts | 271° |
| 2026-05-05 17:23 | 33.92065 | -118.95688 | 15575 ft | 346 kts | 271° |
| 2026-05-05 17:23 | 33.92154 | -118.98553 | 16463 ft | 348 kts | 271° |
| 2026-05-05 17:24 | 33.92539 | -119.01442 | 17357 ft | 354 kts | 284° |
| 2026-05-05 17:24 | 33.93541 | -119.04174 | 18216 ft | 362 kts | 296° |
| 2026-05-05 17:24 | 33.94865 | -119.06781 | 18949 ft | 367 kts | 297° |
| 2026-05-05 17:24 | 33.96230 | -119.09399 | 19635 ft | 370 kts | 297° |
| 2026-05-05 17:25 | 33.97603 | -119.12036 | 20312 ft | 374 kts | 297° |
| 2026-05-05 17:25 | 33.98069 | -119.12940 | 20534 ft | 375 kts | 297° |
| 2026-05-05 17:25 | 34.00427 | -119.17362 | 21609 ft | 383 kts | 304° |
| 2026-05-05 17:25 | 34.02307 | -119.19694 | 22238 ft | 394 kts | 315° |
| 2026-05-05 17:26 | 34.04531 | -119.21681 | 22815 ft | 400 kts | 319° |
| 2026-05-05 17:26 | 34.06813 | -119.23637 | 23393 ft | 404 kts | 319° |
| 2026-05-05 17:26 | 34.09110 | -119.25603 | 23894 ft | 407 kts | 319° |
| 2026-05-05 17:26 | 34.11427 | -119.27596 | 24339 ft | 410 kts | 319° |
| 2026-05-05 17:27 | 34.13755 | -119.29604 | 24779 ft | 413 kts | 319° |
| 2026-05-05 17:27 | 34.16107 | -119.31630 | 25221 ft | 417 kts | 319° |
| 2026-05-05 17:27 | 34.18470 | -119.33665 | 25665 ft | 420 kts | 319° |
| 2026-05-05 17:27 | 34.20859 | -119.35724 | 26124 ft | 423 kts | 319° |
| 2026-05-05 17:28 | 34.23260 | -119.37798 | 26593 ft | 426 kts | 319° |
| 2026-05-05 17:28 | 34.24867 | -119.39186 | 26910 ft | 429 kts | 319° |
| 2026-05-05 17:28 | 34.27307 | -119.41295 | 27400 ft | 433 kts | 319° |
| 2026-05-05 17:28 | 34.29763 | -119.43419 | 27912 ft | 436 kts | 319° |
| 2026-05-05 17:29 | 34.32247 | -119.45568 | 28446 ft | 441 kts | 319° |
| 2026-05-05 17:29 | 34.34749 | -119.47734 | 28976 ft | 445 kts | 319° |
| 2026-05-05 17:29 | 34.37280 | -119.49928 | 29514 ft | 449 kts | 319° |
| 2026-05-05 17:29 | 34.39834 | -119.52132 | 30075 ft | 454 kts | 322° |
| 2026-05-05 17:30 | 34.42643 | -119.53983 | 30564 ft | 466 kts | 332° |
| 2026-05-05 17:30 | 34.45670 | -119.55473 | 31033 ft | 472 kts | 333° |
| 2026-05-05 17:30 | 34.48732 | -119.56950 | 31521 ft | 476 kts | 333° |
| 2026-05-05 17:30 | 34.51829 | -119.58441 | 32034 ft | 480 kts | 332° |
| 2026-05-05 17:31 | 34.54942 | -119.59955 | 32534 ft | 485 kts | 332° |
| 2026-05-05 17:31 | 34.58089 | -119.61492 | 33030 ft | 489 kts | 332° |
| 2026-05-05 17:31 | 34.61261 | -119.63035 | 33553 ft | 494 kts | 332° |
| 2026-05-05 17:31 | 34.64468 | -119.64592 | 34067 ft | 498 kts | 332° |
| 2026-05-05 17:32 | 34.67679 | -119.66154 | 34678 ft | 496 kts | 332° |
| 2026-05-05 17:32 | 34.70878 | -119.67713 | 35393 ft | 493 kts | 332° |
| 2026-05-05 17:32 | 34.74051 | -119.69262 | 36062 ft | 491 kts | 332° |
| 2026-05-05 17:32 | 34.77215 | -119.70809 | 36711 ft | 489 kts | 333° |
| 2026-05-05 17:33 | 34.80333 | -119.72333 | 37290 ft | 488 kts | 333° |
| 2026-05-05 17:33 | 34.83481 | -119.73872 | 37841 ft | 488 kts | 333° |
| 2026-05-05 17:33 | 34.86645 | -119.75423 | 38019 ft | 490 kts | 333° |
| 2026-05-05 17:34 | 34.92905 | -119.78489 | 38032 ft | 483 kts | 333° |
| 2026-05-05 17:34 | 34.99143 | -119.81556 | 38034 ft | 483 kts | 334° |
| 2026-05-05 17:35 | 35.05377 | -119.84620 | 38038 ft | 483 kts | 334° |
| 2026-05-05 17:35 | 35.11608 | -119.87692 | 38046 ft | 483 kts | 334° |
| 2026-05-05 17:36 | 35.17832 | -119.90783 | 38049 ft | 483 kts | 335° |
| 2026-05-05 17:36 | 35.24058 | -119.93872 | 38059 ft | 483 kts | 335° |
| 2026-05-05 17:37 | 35.30289 | -119.96973 | 38063 ft | 483 kts | 335° |
| 2026-05-05 17:37 | 35.36523 | -120.00079 | 38071 ft | 483 kts | 335° |
| 2026-05-05 17:38 | 35.42748 | -120.03186 | 38065 ft | 483 kts | 335° |
| 2026-05-05 17:38 | 35.48926 | -120.06275 | 38076 ft | 483 kts | 335° |
| 2026-05-05 17:39 | 35.55150 | -120.09392 | 38064 ft | 483 kts | 336° |
| 2026-05-05 17:39 | 35.61376 | -120.12515 | 38075 ft | 483 kts | 336° |
| 2026-05-05 17:40 | 35.67594 | -120.15639 | 38067 ft | 482 kts | 336° |
| 2026-05-05 17:40 | 35.73809 | -120.18767 | 38074 ft | 483 kts | 336° |
| 2026-05-05 17:41 | 35.80018 | -120.21897 | 38068 ft | 482 kts | 336° |
| 2026-05-05 17:41 | 35.86217 | -120.25029 | 38078 ft | 481 kts | 336° |
| 2026-05-05 17:42 | 35.92411 | -120.28162 | 38067 ft | 481 kts | 337° |
| 2026-05-05 17:42 | 35.98608 | -120.31302 | 38076 ft | 481 kts | 337° |
| 2026-05-05 17:43 | 36.04797 | -120.34443 | 38069 ft | 481 kts | 337° |
| 2026-05-05 17:43 | 36.10980 | -120.37588 | 38071 ft | 480 kts | 337° |
| 2026-05-05 17:44 | 36.17113 | -120.40711 | 38069 ft | 479 kts | 338° |
| 2026-05-05 17:44 | 36.23282 | -120.43859 | 38075 ft | 479 kts | 338° |
| 2026-05-05 17:44 | 36.26357 | -120.45431 | 37816 ft | 476 kts | 338° |
| 2026-05-05 17:45 | 36.29415 | -120.46994 | 37240 ft | 475 kts | 338° |
| 2026-05-05 17:45 | 36.32443 | -120.48544 | 36627 ft | 465 kts | 339° |
| 2026-05-05 17:45 | 36.35408 | -120.50064 | 35692 ft | 459 kts | 339° |
| 2026-05-05 17:45 | 36.38372 | -120.51583 | 34289 ft | 465 kts | 340° |
| 2026-05-05 17:46 | 36.41323 | -120.53095 | 33538 ft | 452 kts | 341° |
| 2026-05-05 17:46 | 36.43224 | -120.54072 | 33091 ft | 442 kts | 341° |
| 2026-05-05 17:46 | 36.46954 | -120.55990 | 32218 ft | 425 kts | 341° |
| 2026-05-05 17:46 | 36.49642 | -120.57372 | 31921 ft | 412 kts | 341° |
| 2026-05-05 17:47 | 36.52265 | -120.58770 | 31839 ft | 414 kts | 336° |
| 2026-05-05 17:47 | 36.54784 | -120.60738 | 31395 ft | 444 kts | 324° |
| 2026-05-05 17:47 | 36.57080 | -120.63234 | 30786 ft | 443 kts | 322° |
| 2026-05-05 17:47 | 36.59346 | -120.65794 | 30204 ft | 438 kts | 322° |
| 2026-05-05 17:48 | 36.61602 | -120.68309 | 29583 ft | 431 kts | 323° |
| 2026-05-05 17:48 | 36.63829 | -120.70754 | 29026 ft | 423 kts | 323° |
| 2026-05-05 17:48 | 36.66019 | -120.73170 | 28453 ft | 418 kts | 323° |
| 2026-05-05 17:48 | 36.68168 | -120.75569 | 27864 ft | 413 kts | 326° |
| 2026-05-05 17:49 | 36.70285 | -120.77936 | 27370 ft | 405 kts | 326° |
| 2026-05-05 17:49 | 36.72381 | -120.80251 | 26837 ft | 401 kts | 326° |
| 2026-05-05 17:49 | 36.74459 | -120.82553 | 26321 ft | 397 kts | 325° |
| 2026-05-05 17:49 | 36.76515 | -120.84847 | 25786 ft | 395 kts | 325° |
| 2026-05-05 17:50 | 36.78552 | -120.87119 | 25278 ft | 392 kts | 325° |
| 2026-05-05 17:50 | 36.80585 | -120.89367 | 24753 ft | 388 kts | 325° |
| 2026-05-05 17:50 | 36.82599 | -120.91588 | 24247 ft | 385 kts | 325° |
| 2026-05-05 17:50 | 36.84598 | -120.93805 | 23742 ft | 382 kts | 324° |
| 2026-05-05 17:51 | 36.86569 | -120.95997 | 23200 ft | 379 kts | 324° |
| 2026-05-05 17:51 | 36.88525 | -120.98171 | 22692 ft | 374 kts | 324° |
| 2026-05-05 17:51 | 36.90461 | -121.00319 | 22214 ft | 371 kts | 324° |
| 2026-05-05 17:51 | 36.92386 | -121.02458 | 21740 ft | 369 kts | 324° |
| 2026-05-05 17:52 | 36.94291 | -121.04580 | 21239 ft | 366 kts | 324° |
| 2026-05-05 17:52 | 36.96186 | -121.06690 | 20770 ft | 363 kts | 323° |
| 2026-05-05 17:52 | 36.98061 | -121.08779 | 20294 ft | 360 kts | 323° |
| 2026-05-05 17:52 | 36.99924 | -121.10857 | 19819 ft | 357 kts | 323° |
| 2026-05-05 17:53 | 37.01768 | -121.12915 | 19351 ft | 354 kts | 323° |
| 2026-05-05 17:53 | 37.03595 | -121.14954 | 18882 ft | 351 kts | 323° |
| 2026-05-05 17:53 | 37.05411 | -121.16984 | 18425 ft | 348 kts | 322° |
| 2026-05-05 17:53 | 37.07210 | -121.18995 | 17924 ft | 344 kts | 322° |
| 2026-05-05 17:54 | 37.08988 | -121.20986 | 17411 ft | 343 kts | 322° |
| 2026-05-05 17:54 | 37.10760 | -121.22970 | 16947 ft | 339 kts | 322° |
| 2026-05-05 17:54 | 37.12513 | -121.24934 | 16497 ft | 338 kts | 322° |
| 2026-05-05 17:54 | 37.14260 | -121.26902 | 16042 ft | 337 kts | 322° |
| 2026-05-05 17:55 | 37.15967 | -121.28895 | 15605 ft | 335 kts | 321° |
| 2026-05-05 17:55 | 37.17660 | -121.30889 | 15166 ft | 333 kts | 321° |
| 2026-05-05 17:55 | 37.19353 | -121.32856 | 14724 ft | 331 kts | 322° |
| 2026-05-05 17:55 | 37.21023 | -121.34788 | 14288 ft | 330 kts | 322° |
| 2026-05-05 17:56 | 37.22721 | -121.36761 | 13851 ft | 327 kts | 322° |
| 2026-05-05 17:56 | 37.24362 | -121.38675 | 13397 ft | 325 kts | 322° |
| 2026-05-05 17:56 | 37.26019 | -121.40606 | 12968 ft | 324 kts | 321° |
| 2026-05-05 17:56 | 37.27636 | -121.42495 | 12536 ft | 307 kts | 322° |
| 2026-05-05 17:57 | 37.29146 | -121.44262 | 12136 ft | 287 kts | 322° |
| 2026-05-05 17:57 | 37.30564 | -121.45916 | 11773 ft | 274 kts | 322° |
| 2026-05-05 17:57 | 37.31963 | -121.47540 | 11416 ft | 271 kts | 322° |
| 2026-05-05 17:57 | 37.33338 | -121.49143 | 11050 ft | 269 kts | 322° |
| 2026-05-05 17:58 | 37.34704 | -121.50742 | 10723 ft | 268 kts | 322° |
| 2026-05-05 17:58 | 37.36060 | -121.52329 | 10365 ft | 267 kts | 322° |
| 2026-05-05 17:58 | 37.37419 | -121.53917 | 10016 ft | 266 kts | 322° |
| 2026-05-05 17:58 | 37.38769 | -121.55480 | 9637 ft | 257 kts | 323° |
| 2026-05-05 17:59 | 37.40050 | -121.56936 | 9310 ft | 240 kts | 323° |
| 2026-05-05 17:59 | 37.41227 | -121.58278 | 9001 ft | 218 kts | 323° |
| 2026-05-05 17:59 | 37.42325 | -121.59529 | 8716 ft | 211 kts | 323° |
| 2026-05-05 17:59 | 37.43409 | -121.60763 | 8461 ft | 210 kts | 322° |
| 2026-05-05 18:00 | 37.44404 | -121.62111 | 8185 ft | 213 kts | 310° |
| 2026-05-05 18:00 | 37.45255 | -121.63629 | 7888 ft | 210 kts | 310° |
| 2026-05-05 18:00 | 37.46099 | -121.65118 | 7618 ft | 212 kts | 310° |
| 2026-05-05 18:00 | 37.46956 | -121.66612 | 7355 ft | 210 kts | 309° |
| 2026-05-05 18:01 | 37.47808 | -121.68101 | 7070 ft | 208 kts | 309° |
| 2026-05-05 18:01 | 37.48650 | -121.69584 | 7008 ft | 209 kts | 309° |
| 2026-05-05 18:01 | 37.49497 | -121.71068 | 7007 ft | 210 kts | 309° |
| 2026-05-05 18:01 | 37.50349 | -121.72558 | 7011 ft | 210 kts | 309° |
| 2026-05-05 18:02 | 37.51198 | -121.74048 | 7007 ft | 210 kts | 309° |
| 2026-05-05 18:02 | 37.52050 | -121.75543 | 6998 ft | 210 kts | 309° |
| 2026-05-05 18:02 | 37.52888 | -121.77034 | 6986 ft | 209 kts | 305° |
| 2026-05-05 18:02 | 37.53328 | -121.78798 | 7001 ft | 215 kts | 282° |
| 2026-05-05 18:03 | 37.53541 | -121.80673 | 6998 ft | 218 kts | 282° |
| 2026-05-05 18:03 | 37.53751 | -121.82560 | 6784 ft | 213 kts | 282° |
| 2026-05-05 18:03 | 37.53958 | -121.84359 | 6505 ft | 202 kts | 282° |
| 2026-05-05 18:03 | 37.54159 | -121.86059 | 6235 ft | 191 kts | 282° |
| 2026-05-05 18:04 | 37.54352 | -121.87708 | 5962 ft | 188 kts | 282° |
| 2026-05-05 18:04 | 37.54541 | -121.89309 | 5689 ft | 184 kts | 281° |
| 2026-05-05 18:04 | 37.54727 | -121.90902 | 5428 ft | 183 kts | 281° |
| 2026-05-05 18:04 | 37.54906 | -121.92447 | 5168 ft | 174 kts | 281° |
| 2026-05-05 18:05 | 37.55078 | -121.93919 | 4920 ft | 166 kts | 281° |
| 2026-05-05 18:05 | 37.55243 | -121.95336 | 4640 ft | 161 kts | 281° |
| 2026-05-05 18:05 | 37.55408 | -121.96736 | 4374 ft | 162 kts | 280° |
| 2026-05-05 18:05 | 37.55570 | -121.98139 | 4112 ft | 161 kts | 280° |
| 2026-05-05 18:06 | 37.55874 | -121.99476 | 3844 ft | 158 kts | 294° |
| 2026-05-05 18:06 | 37.56166 | -122.00315 | 3658 ft | 158 kts | 299° |
| 2026-05-05 18:06 | 37.57068 | -122.01787 | 3300 ft | 158 kts | 306° |
| 2026-05-05 18:06 | 37.57754 | -122.02843 | 3033 ft | 157 kts | 309° |
| 2026-05-05 18:07 | 37.58462 | -122.03910 | 2802 ft | 159 kts | 309° |
| 2026-05-05 18:07 | 37.59162 | -122.04958 | 2698 ft | 157 kts | 309° |
| 2026-05-05 18:07 | 37.59869 | -122.06021 | 2709 ft | 159 kts | 309° |
| 2026-05-05 18:07 | 37.60575 | -122.07080 | 2705 ft | 157 kts | 310° |
| 2026-05-05 18:08 | 37.61285 | -122.08144 | 2711 ft | 161 kts | 309° |
| 2026-05-05 18:08 | 37.61994 | -122.09211 | 2533 ft | 157 kts | 310° |
| 2026-05-05 18:08 | 37.62705 | -122.10263 | 2326 ft | 157 kts | 309° |
| 2026-05-05 18:08 | 37.63409 | -122.11322 | 2125 ft | 157 kts | 310° |
| 2026-05-05 18:09 | 37.64106 | -122.12366 | 1920 ft | 155 kts | 309° |
| 2026-05-05 18:09 | 37.64809 | -122.13422 | 1727 ft | 158 kts | 309° |
| 2026-05-05 18:09 | 37.65488 | -122.14442 | 1498 ft | 145 kts | 310° |
| 2026-05-05 18:09 | 37.66127 | -122.15401 | 1305 ft | 138 kts | 309° |
| 2026-05-05 18:10 | 37.66736 | -122.16310 | 1089 ft | 137 kts | 310° |
| 2026-05-05 18:10 | 37.67350 | -122.17223 | 929 ft | 137 kts | 309° |
| 2026-05-05 18:10 | 37.67964 | -122.18143 | 799 ft | 137 kts | 309° |
| 2026-05-05 18:10 | 37.68583 | -122.19065 | 580 ft | 137 kts | 309° |
| 2026-05-05 18:11 | 37.69197 | -122.19972 | 369 ft | 135 kts | 307° |
| 2026-05-05 18:11 | 37.69794 | -122.20882 | 162 ft | 136 kts | 307° |
| 2026-05-05 18:11 | 37.70394 | -122.21786 | 24 ft | 127 kts | 307° |
| 2026-05-05 18:11 | 37.70876 | -122.22520 | 16 ft | 84 kts | 310° |
| 2026-05-05 18:12 | 37.71149 | -122.22923 | 18 ft | 46 kts | 310° |
| 2026-05-05 18:12 | 37.71323 | -122.23099 | 20 ft | 24 kts | 335° |
| 2026-05-05 18:12 | 37.71403 | -122.23136 | 17 ft | 9 kts | 341° |
| 2026-05-05 18:12 | 37.71441 | -122.23148 | 17 ft | 0 kts | 347° |
| 2026-05-05 18:13 | 37.71451 | -122.23151 | 17 ft | 5 kts | 349° |
| 2026-05-05 18:13 | 37.71483 | -122.23145 | 18 ft | 4 kts | 25° |
| 2026-05-05 18:14 | 37.71498 | -122.23109 | 18 ft | 6 kts | 83° |
| 2026-05-05 18:14 | 37.71488 | -122.23068 | 18 ft | 5 kts | 116° |
| 2026-05-05 18:14 | 37.71464 | -122.23021 | 18 ft | 8 kts | 126° |
| 2026-05-05 18:14 | 37.71423 | -122.22957 | 18 ft | 12 kts | 129° |
| 2026-05-05 18:15 | 37.71362 | -122.22864 | 18 ft | 12 kts | 129° |
| 2026-05-05 18:15 | 37.71303 | -122.22775 | 18 ft | 14 kts | 130° |
| 2026-05-05 18:15 | 37.71258 | -122.22709 | 18 ft | 6 kts | 131° |
| 2026-05-05 18:15 | 37.71242 | -122.22685 | 18 ft | 0 kts | 131° |
| 2026-05-05 18:16 | 37.71241 | -122.22683 | 18 ft | 1 kts | 131° |
| 2026-05-05 18:16 | 37.71239 | -122.22680 | 18 ft | 0 kts | 131° |
| 2026-05-05 18:16 | 37.71238 | -122.22679 | 18 ft | 1 kts | 131° |
| 2026-05-05 18:17 | 37.71227 | -122.22663 | 18 ft | 4 kts | 131° |
| 2026-05-05 18:17 | 37.71213 | -122.22643 | 18 ft | 5 kts | 130° |
| 2026-05-05 18:17 | 37.71195 | -122.22602 | 18 ft | 6 kts | 105° |
| 2026-05-05 18:17 | 37.71202 | -122.22545 | 19 ft | 7 kts | 64° |
| 2026-05-05 18:18 | 37.71241 | -122.22484 | 20 ft | 11 kts | 49° |
| 2026-05-05 18:18 | 37.71304 | -122.22401 | 19 ft | 14 kts | 46° |
| 2026-05-05 18:18 | 37.71354 | -122.22306 | 18 ft | 11 kts | 88° |
| 2026-05-05 18:18 | 37.71321 | -122.22227 | 18 ft | 11 kts | 128° |
| 2026-05-05 18:19 | 37.71267 | -122.22150 | 20 ft | 13 kts | 131° |
| 2026-05-05 18:19 | 37.71209 | -122.22065 | 20 ft | 12 kts | 130° |
| 2026-05-05 18:19 | 37.71158 | -122.21988 | 20 ft | 12 kts | 129° |
| 2026-05-05 18:19 | 37.71133 | -122.21950 | 21 ft | 3 kts | 129° |
| 2026-05-05 18:20 | 37.71124 | -122.21937 | 22 ft | 0 kts | 129° |